Time;durP1;ratioP1;P1;durP2;ratioP2;P2;SDS_P1;SDS_P2;PMS_P1;PMS_P2;Temp;Humidity;BMP_temperature;BMP_pressure;BME280_temperature;BME280_humidity;BME280_pressure;Samples;Min_cycle;Max_cycle;Signal;HPM_P1;HPM_P2
2023/01/23 00:00:38;;;;;;;26.75;13.88;;;;;;;0.99;88.99;101623.08;1733558;83;21164;-86
2023/01/23 00:03:44;;;;;;;27.98;13.65;;;;;;;1.01;88.55;101622.03;1734897;83;21546;-82
2023/01/23 00:06:49;;;;;;;29.05;13.25;;;;;;;0.98;88.66;101628.05;1734713;82;21200;-80
2023/01/23 00:09:56;;;;;;;23.85;13.13;;;;;;;1.02;88.73;101626.94;1734168;82;21213;-86
2023/01/23 00:13:01;;;;;;;24.50;12.63;;;;;;;1.03;87.96;101625.97;1734143;82;21722;-87
2023/01/23 00:16:15;;;;;;;25.55;12.75;;;;;;;1.03;87.90;101627.33;1734817;83;21156;-81
2023/01/23 00:19:20;;;;;;;25.43;12.40;;;;;;;1.03;87.44;101624.62;1734583;83;21173;-85
2023/01/23 00:22:26;;;;;;;30.30;13.90;;;;;;;1.01;87.30;101633.29;1733434;82;21805;-80
2023/01/23 00:25:31;;;;;;;30.68;12.37;;;;;;;1.05;87.11;101632.17;1734775;83;21165;-82
2023/01/23 00:28:37;;;;;;;29.98;13.78;;;;;;;1.06;86.80;101628.52;1733711;83;21169;-88
2023/01/23 00:31:44;;;;;;;32.25;12.85;;;;;;;1.12;86.22;101631.34;1734734;82;21204;-86
2023/01/23 00:34:50;;;;;;;29.10;11.73;;;;;;;1.03;86.22;101632.71;1734793;83;21157;-86
2023/01/23 00:37:56;;;;;;;24.05;11.10;;;;;;;1.04;86.31;101633.13;1733795;83;21816;-81
2023/01/23 00:41:06;;;;;;;33.10;12.00;;;;;;;1.20;86.04;101643.45;1733251;83;21197;-86
2023/01/23 00:44:03;;;;;;;25.68;13.28;;;;;;;1.28;85.36;101639.87;1733784;83;21761;-86
2023/01/23 00:46:55;;;;;;;26.00;11.40;;;;;;;1.34;84.61;101641.84;1733336;83;21244;-80
2023/01/23 00:50:00;;;;;;;26.30;12.45;;;;;;;1.25;84.73;101639.16;1734583;83;21184;-87
2023/01/23 00:53:06;;;;;;;22.20;11.95;;;;;;;1.15;85.04;101639.28;1733789;82;21216;-81
2023/01/23 00:56:12;;;;;;;23.45;13.25;;;;;;;1.22;84.81;101640.66;1735116;81;21157;-81
2023/01/23 00:59:18;;;;;;;22.45;12.03;;;;;;;1.16;84.54;101645.92;1739138;82;21243;-81
2023/01/23 01:02:23;;;;;;;28.73;12.15;;;;;;;1.15;84.95;101645.53;1739248;82;21227;-86
2023/01/23 01:05:25;;;;;;;30.72;12.85;;;;;;;1.24;84.40;101642.34;1739723;82;21702;-87
2023/01/23 01:08:32;;;;;;;21.97;10.85;;;;;;;1.27;84.14;101643.53;1738522;82;21188;-87
2023/01/23 01:11:38;;;;;;;25.55;11.18;;;;;;;1.31;84.02;101640.64;1738554;82;21247;-87
2023/01/23 01:14:43;;;;;;;22.80;11.22;;;;;;;1.35;83.76;101645.78;1740023;82;21188;-81
2023/01/23 01:17:49;;;;;;;22.82;11.03;;;;;;;1.35;83.36;101634.13;1739982;82;21196;-81
2023/01/23 01:20:54;;;;;;;28.60;11.12;;;;;;;1.33;83.25;101637.41;1739948;82;21148;-82
2023/01/23 01:24:00;;;;;;;30.88;12.25;;;;;;;1.33;83.22;101636.06;1740005;82;21157;-86
2023/01/23 01:27:05;;;;;;;23.85;10.65;;;;;;;1.34;83.19;101636.44;1738475;82;21200;-80
2023/01/23 01:29:59;;;;;;;25.97;10.90;;;;;;;1.36;82.91;101629.99;1740034;82;21188;-87
2023/01/23 01:33:03;;;;;;;21.93;9.85;;;;;;;1.39;82.61;101633.01;1739886;82;21785;-81
2023/01/23 01:36:02;;;;;;;26.73;10.88;;;;;;;1.32;82.92;101630.25;1739882;82;21165;-85
2023/01/23 01:39:09;;;;;;;23.15;10.55;;;;;;;1.35;82.76;101624.70;1739764;82;21781;-87
2023/01/23 01:42:08;;;;;;;25.27;9.87;;;;;;;1.39;82.61;101620.39;1738785;82;21203;-80
2023/01/23 01:45:15;;;;;;;21.65;8.45;;;;;;;1.40;82.03;101618.09;1739178;82;21176;-87
2023/01/23 01:48:20;;;;;;;20.35;9.50;;;;;;;1.48;81.90;101624.41;1738599;82;21176;-80
2023/01/23 01:51:37;;;;;;;19.75;9.75;;;;;;;1.57;81.08;101616.28;1739038;82;21192;-87
2023/01/23 01:55:02;;;;;;;28.40;9.25;;;;;;;1.49;81.16;101610.83;1738521;82;21661;-79
2023/01/23 01:58:07;;;;;;;24.37;9.30;;;;;;;1.46;81.05;101610.16;1739676;81;21236;-81
2023/01/23 02:01:13;;;;;;;24.67;10.00;;;;;;;1.46;80.81;101615.07;1738546;82;21752;-80
2023/01/23 02:04:19;;;;;;;21.93;8.20;;;;;;;1.35;81.23;101621.52;1739660;82;21160;-87
2023/01/23 02:07:32;;;;;;;22.60;8.98;;;;;;;1.39;81.20;101623.58;1739126;82;21199;-86
2023/01/23 02:10:39;;;;;;;28.27;9.93;;;;;;;1.48;80.72;101619.02;1739449;82;21251;-82
2023/01/23 02:13:46;;;;;;;31.70;9.58;;;;;;;1.46;80.66;101612.86;1739620;82;21160;-87
2023/01/23 02:16:54;;;;;;;26.70;10.98;;;;;;;1.42;80.59;101616.20;1739446;82;21168;-87
2023/01/23 02:20:27;;;;;;;16.25;8.25;;;;;;;1.48;80.42;101624.41;1739489;82;21145;-80
2023/01/23 02:23:47;;;;;;;26.82;8.40;;;;;;;1.50;80.46;101621.13;1718726;82;22009;-79
2023/01/23 02:26:53;;;;;;;21.75;8.93;;;;;;;1.53;80.21;101613.75;1738468;82;21180;-80
2023/01/23 02:29:59;;;;;;;19.10;9.23;;;;;;;1.60;80.02;101611.59;1739459;82;21188;-86
2023/01/23 02:33:28;;;;;;;20.70;8.50;;;;;;;1.54;79.64;101624.05;1738403;82;21603;-81
2023/01/23 02:36:37;;;;;;;17.32;8.05;;;;;;;1.54;79.67;101618.18;1739730;82;21157;-79
2023/01/23 02:39:44;;;;;;;18.63;7.90;;;;;;;1.59;79.67;101622.45;1739835;82;21698;-86
2023/01/23 02:42:51;;;;;;;29.20;8.58;;;;;;;1.56;79.55;101616.77;1738312;82;21215;-86
2023/01/23 02:45:59;;;;;;;20.15;8.30;;;;;;;1.46;79.90;101611.50;1738488;82;21208;-80
2023/01/23 02:49:05;;;;;;;17.62;7.47;;;;;;;1.50;79.91;101618.44;1738050;82;21164;-87
2023/01/23 02:52:11;;;;;;;36.70;8.43;;;;;;;1.48;80.27;101614.97;1738805;82;21164;-80
2023/01/23 02:55:18;;;;;;;28.57;8.30;;;;;;;1.44;79.81;101625.05;1739495;82;21706;-86
2023/01/23 03:01:50;;;;;;;21.17;6.80;;;;;;;1.31;80.24;101621.77;1738818;82;21729;-80
2023/01/23 03:04:56;;;;;;;26.15;8.03;;;;;;;1.29;80.69;101621.88;1740046;82;21153;-86
2023/01/23 03:08:03;;;;;;;28.02;8.10;;;;;;;1.28;80.85;101627.74;1738880;82;21172;-86
2023/01/23 03:11:09;;;;;;;27.55;8.50;;;;;;;1.25;80.88;101626.55;1739805;82;21145;-81
2023/01/23 03:14:20;;;;;;;20.40;8.20;;;;;;;1.25;80.97;101622.98;1739945;82;21761;-82
2023/01/23 03:17:27;;;;;;;31.50;8.88;;;;;;;1.25;81.04;101627.90;1739254;82;21737;-81
2023/01/23 03:20:34;;;;;;;26.02;8.28;;;;;;;1.24;81.24;101645.03;1739877;82;21161;-80
2023/01/23 03:23:39;;;;;;;34.18;7.70;;;;;;;1.23;81.11;101625.78;1738448;82;21227;-85
2023/01/23 03:26:50;;;;;;;26.02;8.13;;;;;;;1.26;81.24;101634.16;1739693;82;21176;-80
2023/01/23 03:30:14;;;;;;;23.38;8.00;;;;;;;1.24;81.05;101630.20;1739999;82;21153;-80
2023/01/23 03:33:15;;;;;;;21.85;8.13;;;;;;;1.27;80.92;101630.05;1738502;82;21211;-81
2023/01/23 03:36:09;;;;;;;18.80;7.35;;;;;;;1.16;81.21;101628.41;1738480;82;21761;-81
2023/01/23 03:42:25;;;;;;;18.85;8.25;;;;;;;1.25;81.44;101632.42;1738606;82;22070;-79
2023/01/23 03:45:31;;;;;;;18.55;8.38;;;;;;;1.26;81.37;101628.28;1739778;82;21164;-87
2023/01/23 03:48:38;;;;;;;23.45;7.70;;;;;;;1.29;81.47;101620.52;1738445;82;21202;-85
2023/01/23 03:51:43;;;;;;;22.50;7.20;;;;;;;1.29;81.43;101629.95;1738346;82;21232;-86
2023/01/23 03:54:49;;;;;;;28.23;6.70;;;;;;;1.39;81.38;101635.23;1738376;82;21145;-81
2023/01/23 03:57:57;;;;;;;20.37;7.87;;;;;;;1.41;81.15;101625.25;1738895;82;21195;-87
2023/01/23 04:01:05;;;;;;;25.97;8.05;;;;;;;1.40;81.12;101642.84;1738239;82;21192;-80
2023/01/23 04:04:11;;;;;;;22.02;7.92;;;;;;;1.48;80.78;101641.45;1738189;82;21176;-80
2023/01/23 04:07:16;;;;;;;23.92;7.30;;;;;;;1.55;80.51;101639.27;1739190;82;21214;-87
2023/01/23 04:10:22;;;;;;;30.17;9.80;;;;;;;1.57;79.88;101635.16;1739576;82;21149;-87
2023/01/23 04:13:30;;;;;;;23.05;7.65;;;;;;;1.56;79.76;101643.73;1739119;82;21180;-81
2023/01/23 04:16:37;;;;;;;28.40;8.30;;;;;;;1.49;79.31;101648.58;1738118;82;21160;-80
2023/01/23 04:19:43;;;;;;;22.70;8.58;;;;;;;1.51;79.41;101637.73;1738105;82;21235;-81
2023/01/23 04:22:49;;;;;;;20.52;7.65;;;;;;;1.59;79.14;101643.55;1738352;82;21216;-80
2023/01/23 04:25:57;;;;;;;14.95;7.72;;;;;;;1.59;79.05;101641.33;1738290;82;21228;-86
2023/01/23 04:28:56;;;;;;;15.13;7.65;;;;;;;1.53;79.18;101643.89;1739540;82;21779;-87
2023/01/23 04:31:57;;;;;;;20.88;7.50;;;;;;;1.60;78.94;101649.35;1739172;82;21733;-81
2023/01/23 04:35:04;;;;;;;26.00;7.60;;;;;;;1.58;79.02;101653.95;1738153;82;21231;-86
2023/01/23 04:38:11;;;;;;;34.23;8.10;;;;;;;1.67;78.91;101645.34;1739032;82;21188;-86
2023/01/23 04:41:26;;;;;;;31.77;7.95;;;;;;;1.62;78.73;101651.47;1739572;82;21251;-86
2023/01/23 04:44:35;;;;;;;24.12;9.18;;;;;;;1.48;79.12;101658.98;1739898;82;21153;-86
2023/01/23 04:47:58;;;;;;;29.85;9.90;;;;;;;1.43;79.66;101664.25;1739134;82;21742;-81
2023/01/23 04:51:02;;;;;;;28.17;8.28;;;;;;;1.41;79.80;101656.70;1738269;82;21164;-86
2023/01/23 04:54:09;;;;;;;34.83;9.95;;;;;;;1.39;79.92;101669.41;1738434;82;21188;-86
2023/01/23 04:57:15;;;;;;;29.10;8.88;;;;;;;1.45;79.90;101673.11;1739031;82;21215;-86
2023/01/23 05:00:27;;;;;;;28.75;8.25;;;;;;;1.35;80.00;101678.13;1739909;82;21718;-80
2023/01/23 05:03:33;;;;;;;45.08;11.65;;;;;;;1.36;80.37;101674.48;1731817;82;21248;-86
2023/01/23 05:06:41;;;;;;;46.02;15.10;;;;;;;1.35;80.91;101692.09;1732606;82;21228;-80
2023/01/23 05:09:40;;;;;;;56.28;13.90;;;;;;;1.31;81.57;101686.47;1732806;83;21197;-82
2023/01/23 05:12:47;;;;;;;45.55;13.08;;;;;;;1.22;82.16;101691.44;1731663;82;21232;-83
2023/01/23 05:15:53;;;;;;;44.70;14.05;;;;;;;1.18;82.71;101686.29;1733286;83;21507;-86
2023/01/23 05:18:54;;;;;;;65.22;17.20;;;;;;;1.17;83.40;101690.78;1730346;83;21765;-80
2023/01/23 05:21:47;;;;;;;57.23;14.20;;;;;;;1.07;83.90;101696.75;1732438;82;21220;-80
2023/01/23 05:24:34;;;;;;;43.08;13.62;;;;;;;1.02;84.42;101703.25;1731965;83;21140;-84
2023/01/23 05:27:26;;;;;;;36.95;11.90;;;;;;;0.99;84.78;101704.78;1732120;82;21204;-85
2023/01/23 05:30:13;;;;;;;54.33;14.53;;;;;;;1.04;84.70;101718.02;1732575;83;21734;-84
2023/01/23 05:33:22;;;;;;;42.13;12.73;;;;;;;1.00;84.96;101709.69;1730289;82;21192;-80
2023/01/23 05:36:28;;;;;;;47.30;13.78;;;;;;;0.96;85.36;101714.36;1732613;82;21205;-86
2023/01/23 05:39:33;;;;;;;46.95;14.03;;;;;;;1.01;85.69;101710.08;1732708;83;21232;-80
2023/01/23 05:42:38;;;;;;;41.63;13.48;;;;;;;1.02;85.70;101710.47;1732192;82;21224;-85
2023/01/23 05:46:01;;;;;;;55.45;13.58;;;;;;;1.00;85.97;101721.34;1732687;83;21161;-79
2023/01/23 05:49:12;;;;;;;49.58;13.48;;;;;;;1.03;86.52;101721.63;1732097;83;21716;-86
2023/01/23 05:52:20;;;;;;;40.15;12.80;;;;;;;1.03;86.87;101728.37;1729648;83;21204;-79
2023/01/23 05:55:26;;;;;;;49.60;15.00;;;;;;;1.04;87.25;101727.45;1732214;83;21192;-80
2023/01/23 05:58:32;;;;;;;45.15;13.32;;;;;;;1.07;87.75;101735.34;1731801;83;21207;-80
2023/01/23 06:01:43;;;;;;;43.98;12.75;;;;;;;1.10;87.88;101740.59;1733311;80;21248;-80
2023/01/23 06:05:08;;;;;;;48.92;13.48;;;;;;;1.06;88.16;101734.95;1684411;83;21264;-83
2023/01/23 06:08:19;;;;;;;48.50;14.10;;;;;;;1.06;88.52;101742.17;1684874;84;21225;-86
2023/01/23 06:11:26;;;;;;;35.68;12.82;;;;;;;1.08;88.81;101739.78;1703965;83;21185;-87
2023/01/23 06:14:26;;;;;;;52.80;13.32;;;;;;;1.02;88.95;101742.80;1705973;84;21189;-87
2023/01/23 06:17:19;;;;;;;47.65;14.93;;;;;;;1.15;89.10;101747.95;1710624;81;21252;-80
2023/01/23 06:20:25;;;;;;;41.28;14.15;;;;;;;1.24;88.79;101751.98;1723843;81;21927;-87
2023/01/23 06:23:31;;;;;;;59.05;17.30;;;;;;;1.20;89.08;101749.92;1735373;81;21216;-86
2023/01/23 06:26:38;;;;;;;54.05;15.78;;;;;;;1.22;89.41;101753.43;1739425;81;21212;-86
2023/01/23 06:29:44;;;;;;;38.88;13.78;;;;;;;1.37;89.03;101757.12;1730335;79;74919;-86
2023/01/23 06:32:50;;;;;;;49.88;15.80;;;;;;;1.26;89.26;101758.16;1741837;81;21164;-86
2023/01/23 06:36:06;;;;;;;64.42;15.78;;;;;;;1.47;89.30;101757.02;1744374;81;21524;-87
2023/01/23 06:39:12;;;;;;;48.73;14.33;;;;;;;1.30;89.78;101755.70;1751148;81;21745;-86
2023/01/23 06:42:17;;;;;;;38.53;13.32;;;;;;;1.40;90.11;101761.47;1745685;81;21224;-87
2023/01/23 06:45:23;;;;;;;41.63;12.95;;;;;;;1.24;90.91;101764.12;1745971;81;21490;-88
2023/01/23 06:48:30;;;;;;;54.58;14.90;;;;;;;1.62;90.55;101758.02;1743477;81;21180;-82
2023/01/23 06:51:36;;;;;;;40.85;13.98;;;;;;;1.59;90.01;101763.56;1743516;81;21200;-80
2023/01/23 06:54:42;;;;;;;47.25;12.88;;;;;;;1.68;89.86;101765.76;1732946;81;21563;-80
2023/01/23 06:57:48;;;;;;;32.33;13.70;;;;;;;1.75;89.84;101774.41;1746370;81;21137;-80
2023/01/23 07:00:54;;;;;;;44.58;13.53;;;;;;;1.76;89.83;101780.19;1734013;81;21770;-79
2023/01/23 07:04:19;;;;;;;44.13;13.80;;;;;;;1.67;90.31;101781.56;1735741;81;21459;-81
2023/01/23 07:07:25;;;;;;;43.15;12.07;;;;;;;1.54;90.89;101780.47;1736407;81;21189;-80
2023/01/23 07:10:32;;;;;;;46.15;13.62;;;;;;;1.58;91.71;101784.75;1740427;81;21173;-79
2023/01/23 07:13:38;;;;;;;33.85;12.98;;;;;;;1.61;91.94;101785.08;1743763;81;21197;-79
2023/01/23 07:16:46;;;;;;;40.38;15.25;;;;;;;1.67;91.91;101795.05;1740328;81;21223;-79
2023/01/23 07:19:53;;;;;;;42.27;13.03;;;;;;;1.74;91.71;101791.52;1740209;81;21744;-79
2023/01/23 07:23:01;;;;;;;47.13;13.40;;;;;;;1.79;91.60;101792.17;1742079;81;21207;-86
2023/01/23 07:26:10;;;;;;;33.55;13.25;;;;;;;1.74;91.65;101797.82;1741559;81;21216;-80
2023/01/23 07:29:15;;;;;;;38.23;13.60;;;;;;;1.69;91.26;101802.56;1743825;81;21144;-87
2023/01/23 07:32:21;;;;;;;33.85;13.60;;;;;;;1.55;91.42;101807.83;1695257;83;21160;-87
2023/01/23 07:35:28;;;;;;;32.08;12.70;;;;;;;1.53;91.26;101807.05;1694873;82;21802;-87
2023/01/23 07:38:33;;;;;;;41.50;13.58;;;;;;;1.50;91.16;101813.95;1692864;83;21194;-87
2023/01/23 07:41:40;;;;;;;42.17;13.03;;;;;;;1.45;91.01;101810.63;1741765;81;21172;-87
2023/01/23 07:44:40;;;;;;;33.48;12.45;;;;;;;1.47;91.12;101819.52;1728379;81;21160;-87
2023/01/23 07:47:45;;;;;;;34.70;13.53;;;;;;;1.42;90.85;101821.59;1736957;81;21746;-87
2023/01/23 07:50:50;;;;;;;37.30;13.50;;;;;;;1.36;91.12;101822.77;1743664;81;21177;-87
2023/01/23 07:53:56;;;;;;;39.25;13.93;;;;;;;1.39;91.08;101829.83;1746798;81;21833;-87
2023/01/23 07:57:05;;;;;;;39.30;12.82;;;;;;;1.35;91.11;101831.81;1739022;81;21196;-80
2023/01/23 08:00:12;;;;;;;47.75;14.75;;;;;;;1.35;91.33;101839.03;1738659;81;21192;-80
2023/01/23 08:03:19;;;;;;;39.30;13.03;;;;;;;1.31;91.33;101835.61;1734429;81;21202;-80
2023/01/23 08:06:26;;;;;;;33.65;13.50;;;;;;;1.33;91.45;101839.59;1748786;80;21284;-80
2023/01/23 08:09:31;;;;;;;36.00;13.80;;;;;;;1.35;91.46;101844.42;1755165;80;21228;-80
2023/01/23 08:12:37;;;;;;;38.05;14.00;;;;;;;1.32;91.53;101841.88;1750405;80;21848;-79
2023/01/23 08:15:45;;;;;;;31.75;13.38;;;;;;;1.38;91.86;101844.27;1744282;80;21176;-79
2023/01/23 08:18:51;;;;;;;29.32;12.43;;;;;;;1.33;92.07;101843.64;1753804;80;21149;-80
2023/01/23 08:21:56;;;;;;;35.20;13.15;;;;;;;1.47;92.26;101853.23;1750054;80;21169;-80
2023/01/23 08:25:01;;;;;;;33.95;13.28;;;;;;;1.49;92.03;101852.19;1754200;80;21724;-81
2023/01/23 08:28:06;;;;;;;40.28;14.07;;;;;;;1.54;92.34;101851.94;1751842;80;21204;-81
2023/01/23 08:31:14;;;;;;;42.30;15.40;;;;;;;1.73;91.49;101853.19;1762568;79;27392;-80
2023/01/23 08:34:20;;;;;;;36.80;13.75;;;;;;;1.52;91.90;101858.77;1767423;79;21570;-80
2023/01/23 08:37:26;;;;;;;39.25;14.47;;;;;;;1.62;91.98;101864.55;1774291;79;21177;-80
2023/01/23 08:40:33;;;;;;;48.75;14.70;;;;;;;1.71;91.75;101853.28;1769823;79;21722;-81
2023/01/23 08:43:40;;;;;;;50.70;16.10;;;;;;;1.61;91.93;101862.81;1773262;79;21182;-87
2023/01/23 08:46:47;;;;;;;41.98;14.23;;;;;;;1.66;92.09;101863.44;1769824;79;21821;-80
2023/01/23 08:49:54;;;;;;;43.80;13.55;;;;;;;1.61;92.15;101856.07;1765796;79;21145;-82
2023/01/23 08:52:59;;;;;;;34.90;13.55;;;;;;;1.74;92.08;101860.31;1769510;79;21165;-81
2023/01/23 08:56:14;;;;;;;48.92;16.60;;;;;;;1.73;92.37;101855.41;1770693;79;21166;-86
2023/01/23 08:59:14;;;;;;;40.33;14.25;;;;;;;2.13;91.21;101857.30;1770873;79;21705;-86
2023/01/23 09:02:20;;;;;;;35.80;13.35;;;;;;;2.23;90.61;101859.88;1769166;79;21217;-86
2023/01/23 09:05:25;;;;;;;46.42;14.60;;;;;;;2.17;90.56;101861.58;1774035;79;21211;-87
2023/01/23 09:08:31;;;;;;;37.38;13.03;;;;;;;2.01;90.89;101863.36;1781084;79;21153;-87
2023/01/23 09:11:36;;;;;;;35.88;13.08;;;;;;;2.07;90.81;101859.45;1781947;79;21167;-88
2023/01/23 09:14:42;;;;;;;41.10;12.88;;;;;;;2.07;90.68;101859.00;1779186;79;21148;-87
2023/01/23 09:17:47;;;;;;;36.55;12.68;;;;;;;2.04;90.18;101861.38;1780443;79;21208;-86
2023/01/23 09:20:53;;;;;;;32.35;12.78;;;;;;;1.93;90.34;101864.25;1786894;79;21156;-87
2023/01/23 09:23:59;;;;;;;34.60;12.70;;;;;;;1.77;90.95;101866.43;1784584;79;21173;-88
2023/01/23 09:27:04;;;;;;;39.65;15.50;;;;;;;1.80;90.82;101857.31;1781667;79;21160;-87
2023/01/23 09:30:11;;;;;;;30.48;12.75;;;;;;;1.75;90.84;101867.00;1785956;79;21116;-86
2023/01/23 09:33:21;;;;;;;46.48;13.80;;;;;;;1.82;90.49;101865.31;1782267;79;94391;-87
2023/01/23 09:36:25;;;;;;;45.92;12.23;;;;;;;1.79;90.09;101871.77;1786393;79;21587;-80
2023/01/23 09:39:32;;;;;;;29.40;10.93;;;;;;;1.85;89.61;101875.95;1781556;79;21212;-79
2023/01/23 09:42:40;;;;;;;33.13;12.63;;;;;;;1.74;88.75;101881.45;1779020;79;21262;-80
2023/01/23 09:45:46;;;;;;;26.37;13.00;;;;;;;1.62;89.06;101883.44;1776980;79;21242;-80
2023/01/23 09:48:56;;;;;;;45.83;15.40;;;;;;;1.47;89.29;101884.25;1786674;79;21132;-88
2023/01/23 09:52:14;;;;;;;34.25;15.85;;;;;;;1.51;88.98;101881.79;1785358;79;21160;-89
2023/01/23 09:55:34;;;;;;;27.00;11.05;;;;;;;1.62;88.42;101879.88;1792604;79;21175;-88
2023/01/23 09:58:45;;;;;;;25.05;11.15;;;;;;;1.74;87.71;101877.85;1783855;79;21156;-87
2023/01/23 10:01:51;;;;;;;32.10;12.98;;;;;;;1.59;87.67;101875.97;1786507;79;21306;-87
2023/01/23 10:05:01;;;;;;;34.55;15.80;;;;;;;1.41;87.92;101867.91;1777281;79;21201;-80
2023/01/23 10:08:41;;;;;;;39.83;14.40;;;;;;;1.36;88.05;101873.13;1768104;79;21216;-86
2023/01/23 10:12:01;;;;;;;32.30;15.85;;;;;;;1.60;87.48;101875.02;1771557;79;21220;-79
2023/01/23 10:15:26;;;;;;;44.13;14.87;;;;;;;1.59;87.00;101863.84;1772533;79;21157;-79
2023/01/23 10:19:10;;;;;;;25.57;10.70;;;;;;;1.71;85.83;101864.06;1771843;79;21180;-89
2023/01/23 10:22:39;;;;;;;33.02;13.83;;;;;;;1.73;85.19;101869.38;1771067;79;21273;-88
2023/01/23 10:25:45;;;;;;;32.15;18.07;;;;;;;1.56;85.29;101859.97;1776805;79;21190;-80
2023/01/23 10:28:51;;;;;;;24.55;16.60;;;;;;;1.46;85.19;101871.72;1775204;79;21185;-87
2023/01/23 10:32:05;;;;;;;33.45;17.85;;;;;;;1.34;85.48;101869.17;1768574;79;26350;-79
2023/01/23 10:35:13;;;;;;;27.73;12.45;;;;;;;1.49;85.12;101855.36;1758868;79;21180;-86
2023/01/23 10:38:50;;;;;;;30.80;12.05;;;;;;;1.37;85.14;101859.58;1758446;79;21710;-87
2023/01/23 10:41:56;;;;;;;24.00;9.93;;;;;;;1.11;85.76;101851.95;1765480;79;21151;-81
2023/01/23 10:45:02;;;;;;;26.82;9.95;;;;;;;1.16;85.24;101851.23;1761356;79;21212;-81
2023/01/23 10:48:08;;;;;;;19.85;8.25;;;;;;;1.20;84.84;101853.70;1763008;79;21192;-80
2023/01/23 10:51:36;;;;;;;22.50;9.95;;;;;;;1.06;84.47;101861.62;1760868;79;21188;-81
2023/01/23 10:54:52;;;;;;;27.35;9.25;;;;;;;0.93;84.63;101859.14;1760823;79;21141;-88
2023/01/23 10:58:02;;;;;;;25.65;9.38;;;;;;;0.96;84.56;101848.22;1769205;79;21196;-87
2023/01/23 11:01:07;;;;;;;21.95;8.88;;;;;;;0.99;84.18;101861.55;1762274;79;21208;-81
2023/01/23 11:04:27;;;;;;;15.85;8.95;;;;;;;0.98;83.92;101851.21;1761294;80;21173;-79
2023/01/23 11:07:34;;;;;;;28.55;11.95;;;;;;;1.06;83.66;101842.75;1763259;80;21161;-80
2023/01/23 11:10:40;;;;;;;21.65;9.18;;;;;;;1.10;83.33;101836.73;1751851;80;21821;-87
2023/01/23 11:13:47;;;;;;;19.48;10.23;;;;;;;1.16;83.02;101850.76;1761643;80;21165;-88
2023/01/23 11:16:52;;;;;;;26.37;9.83;;;;;;;1.23;82.69;101845.47;1763737;80;21188;-88
2023/01/23 11:20:00;;;;;;;25.05;9.60;;;;;;;1.25;82.08;101847.59;1757037;81;21469;-80
2023/01/23 11:23:23;;;;;;;21.27;9.65;;;;;;;1.38;82.30;101845.14;1753236;80;21184;-80
2023/01/23 11:26:40;;;;;;;20.45;8.63;;;;;;;1.30;81.75;101846.48;1757991;80;21570;-86
2023/01/23 16:10:44;;;;;;;22.67;13.35;;;;;;;0.72;89.37;101929.77;1855980;76;22197;-76
2023/01/23 16:13:50;;;;;;;24.60;15.72;;;;;;;0.39;89.40;101932.24;1817767;79;21129;-76
2023/01/23 16:16:58;;;;;;;22.27;13.70;;;;;;;0.83;87.92;101937.33;1817764;79;21688;-76
2023/01/23 16:20:05;;;;;;;24.43;12.63;;;;;;;0.62;87.41;101921.73;1816630;79;21177;-76
2023/01/23 16:23:25;;;;;;;22.50;13.45;;;;;;;0.53;87.55;101920.35;1814598;79;21177;-76
2023/01/23 16:26:34;;;;;;;35.20;13.98;;;;;;;0.66;86.92;101920.61;1815655;79;21228;-75
2023/01/23 16:29:42;;;;;;;20.62;13.83;;;;;;;0.86;85.67;101922.38;1814419;79;21188;-76
2023/01/23 16:32:49;;;;;;;19.32;11.85;;;;;;;0.87;85.09;101929.02;1817851;79;21137;-76
2023/01/23 16:35:56;;;;;;;18.77;12.03;;;;;;;0.94;84.50;101925.09;1816115;79;21739;-76
2023/01/23 16:39:01;;;;;;;22.80;11.70;;;;;;;0.90;84.19;101931.58;1817339;79;21322;-76
2023/01/23 16:42:07;;;;;;;18.57;11.05;;;;;;;1.14;83.04;101926.80;1815949;79;21750;-76
2023/01/23 16:45:30;;;;;;;24.47;11.28;;;;;;;1.00;83.46;101925.27;1800693;79;21189;-77
2023/01/23 16:48:37;;;;;;;22.37;12.33;;;;;;;1.06;83.10;101924.08;1811554;79;21240;-77
2023/01/23 16:51:43;;;;;;;18.20;11.30;;;;;;;1.32;82.48;101929.49;1788559;79;21525;-78
2023/01/23 16:54:51;;;;;;;17.52;10.08;;;;;;;1.29;81.93;101930.54;1784489;79;21239;-78
2023/01/23 16:57:58;;;;;;;22.60;11.38;;;;;;;1.38;81.57;101927.86;1790149;79;21140;-76
2023/01/23 17:01:16;;;;;;;20.97;10.05;;;;;;;1.20;81.46;101928.30;1794391;79;21152;-77
2023/01/23 17:04:24;;;;;;;13.98;9.23;;;;;;;1.28;81.34;101924.28;1771268;79;21110;-76
2023/01/23 17:07:30;;;;;;;19.05;10.28;;;;;;;1.79;79.54;101918.50;1803170;79;21452;-77
2023/01/23 17:10:35;;;;;;;17.92;9.58;;;;;;;1.84;78.83;101914.21;1786647;79;21723;-75
2023/01/23 17:13:43;;;;;;;23.67;11.65;;;;;;;1.77;78.62;101923.56;1784570;80;21202;-76
2023/01/23 17:16:48;;;;;;;22.90;10.28;;;;;;;1.76;79.14;101914.61;1783690;80;21189;-76
2023/01/23 17:19:54;;;;;;;20.17;9.08;;;;;;;1.60;79.76;101913.67;1783592;80;21256;-76
2023/01/23 17:23:00;;;;;;;18.87;9.83;;;;;;;1.60;80.12;101918.17;1783686;80;21241;-75
2023/01/23 17:26:06;;;;;;;13.58;8.50;;;;;;;1.48;80.54;101911.60;1781464;80;21220;-77
2023/01/23 17:29:12;;;;;;;18.98;10.38;;;;;;;1.79;80.07;101913.59;1783627;80;21245;-76
2023/01/23 17:32:26;;;;;;;17.70;9.20;;;;;;;1.82;79.90;101908.00;1782961;80;21200;-76
2023/01/23 17:35:43;;;;;;;16.40;10.60;;;;;;;1.65;80.13;101909.39;1781428;80;21776;-76
2023/01/23 17:38:50;;;;;;;26.42;10.23;;;;;;;1.45;81.12;101903.66;1783678;80;21193;-78
2023/01/23 17:41:56;;;;;;;19.05;9.40;;;;;;;1.63;81.39;101904.53;1783276;80;21256;-78
2023/01/23 17:45:02;;;;;;;19.30;10.18;;;;;;;1.73;81.11;101898.56;1784815;80;21798;-78
2023/01/23 17:48:07;;;;;;;21.90;11.97;;;;;;;1.86;81.02;101900.15;1784644;80;21181;-76
2023/01/23 17:51:15;;;;;;;21.12;11.68;;;;;;;1.87;80.62;101896.48;1783511;80;21205;-77
2023/01/23 17:54:26;;;;;;;21.23;15.25;;;;;;;2.00;80.35;101893.53;1771706;80;21220;-77
2023/01/23 17:57:33;;;;;;;23.45;14.63;;;;;;;1.85;80.56;101897.06;1783425;80;21189;-77
2023/01/23 18:00:38;;;;;;;17.90;9.43;;;;;;;2.09;80.36;101898.91;1783319;80;21789;-76
2023/01/23 18:03:43;;;;;;;15.88;9.68;;;;;;;2.26;79.77;101899.36;1783235;80;21228;-77
2023/01/23 18:06:50;;;;;;;21.25;9.40;;;;;;;2.30;79.50;101902.26;1783218;80;21165;-78
2023/01/23 18:09:56;;;;;;;16.50;8.20;;;;;;;2.26;79.77;101896.66;1783281;80;21160;-77
2023/01/23 18:13:45;;;;;;;16.20;8.90;;;;;;;2.34;79.43;101897.56;1784731;80;21220;-77
2023/01/23 18:16:54;;;;;;;18.32;8.95;;;;;;;2.40;79.14;101894.52;1784742;80;21220;-77
2023/01/23 18:20:00;;;;;;;23.07;9.43;;;;;;;2.40;79.10;101891.81;1784548;80;21173;-77
2023/01/23 18:22:59;;;;;;;15.68;8.80;;;;;;;2.51;78.97;101888.92;1784837;80;21161;-78
2023/01/23 18:25:51;;;;;;;14.05;8.98;;;;;;;2.29;79.57;101889.23;1784432;80;21211;-77
2023/01/23 18:29:09;;;;;;;20.60;9.78;;;;;;;2.30;79.58;101887.41;1784713;80;21292;-77
2023/01/23 18:32:24;;;;;;;21.12;9.18;;;;;;;2.15;80.01;101878.80;1783526;80;21244;-76
2023/01/23 18:35:57;;;;;;;21.82;9.15;;;;;;;2.34;79.65;101876.83;1784647;80;21218;-77
2023/01/23 18:39:19;;;;;;;17.02;9.05;;;;;;;2.28;79.83;101875.34;1794274;79;21529;-76
2023/01/23 18:42:38;;;;;;;17.17;9.93;;;;;;;2.26;80.02;101884.51;1815294;79;21193;-76
2023/01/23 18:45:43;;;;;;;27.67;11.03;;;;;;;2.35;79.85;101881.75;1816728;79;21169;-76
2023/01/23 18:48:50;;;;;;;20.85;9.98;;;;;;;2.32;79.15;101885.98;1814864;79;21176;-76
2023/01/23 18:52:21;;;;;;;16.05;8.83;;;;;;;2.16;79.73;101888.64;1815875;79;21236;-76
2023/01/23 18:55:56;;;;;;;18.62;9.93;;;;;;;2.13;79.54;101888.83;1815139;79;21185;-76
2023/01/23 18:59:24;;;;;;;20.23;9.73;;;;;;;2.19;79.44;101890.70;1816673;79;21216;-76
2023/01/23 19:02:49;;;;;;;22.10;10.50;;;;;;;2.29;79.06;101887.88;1815349;79;21169;-76
2023/01/23 19:05:48;;;;;;;15.55;9.23;;;;;;;2.33;78.80;101880.98;1817708;79;21137;-76
2023/01/23 19:08:55;;;;;;;21.85;10.18;;;;;;;2.07;79.54;101875.20;1817760;79;21137;-75
2023/01/23 19:12:12;;;;;;;18.57;10.72;;;;;;;2.07;79.63;101876.55;1815570;78;21185;-76
2023/01/23 19:15:49;;;;;;;19.95;10.10;;;;;;;2.16;79.50;101875.14;1816722;79;21170;-76